Ankergracht — PCQL — position and weather

sailwx.info

Track history (hours):
 
Tides and Currents Weather Stations Pressure Air Temp Water Temp Dewpoint Dewpoint Depression Visibility Wind Speed Wind Dir Waves Ship Positions

Ankergracht

Last reported at 2017-Oct-22 15:30 UTC. Time now 2017-Oct-22 15:53 UTC.
Position N 51°28' E 001°21'.

Length 130 m; beam 19 m; draft 9 m.

Type: Ship (hazmat cat A). MMSI: 244110390.

Date/timePositionNaut miles runAvg speedWind from/ knotsBaromVisibWave heightAir tempDewpointWater temp
2017-Oct-22 15:30N 51°28' E 001°21'816.0
2017-Oct-22 15:00N 51°29' E 001°08'1015.7
2017-Oct-22 14:23N 51°29' E 000°53'1 0.1
2017-Oct-22 05:56N 51°29' E 000°54'613.7
2017-Oct-22 05:30N 51°30' E 001°03'612.7
2017-Oct-22 05:00N 51°29' E 001°13'613.0
2017-Oct-22 04:30N 51°29' E 001°24'713.5
2017-Oct-22 04:00N 51°31' E 001°34'713.1
2017-Oct-22 03:30N 51°34' E 001°43'612.7
2017-Oct-22 03:00N 51°38' E 001°52'611.8
2017-Oct-22 02:30N 51°41' E 001°59'711.4
2017-Oct-22 01:56N 51°45' E 002°08'57 9.6
2017-Oct-21 19:58N 52°04' E 003°35'4 9.1
2017-Oct-21 19:30N 52°03' E 003°42'5 9.0
2017-Oct-21 19:00N 52°02' E 003°49'5 9.9
2017-Oct-21 18:30N 52°01' E 003°57'713.6
2017-Oct-21 18:00N 51°59' E 004°07'714.4
2017-Oct-21 17:30N 51°54' E 004°16'510.2
2017-Oct-21 17:00N 51°51' E 004°22'5 9.3
2017-Oct-21 16:30N 51°50' E 004°30'4 7.9
2017-Oct-21 16:00N 51°48' E 004°36'4 7.2
2017-Oct-21 15:30N 51°45' E 004°38'4 7.7
2017-Oct-21 15:00N 51°42' E 004°35'1 0.6
2017-Oct-21 13:57N 51°41' E 004°36'0 0.0
2017-Oct-21 13:27N 51°41' E 004°36'0 0.0
2017-Oct-21 13:00N 51°41' E 004°36'0 0.0
2017-Oct-21 12:30N 51°41' E 004°36'0 0.0
2017-Oct-21 11:48N 51°41' E 004°36'0 0.0
2017-Oct-21 11:30N 51°41' E 004°36'0 0.0
2017-Oct-21 11:00N 51°41' E 004°36'0 0.0
2017-Oct-21 10:30N 51°41' E 004°36'0 0.0
2017-Oct-21 09:54N 51°41' E 004°36'0 0.0
2017-Oct-21 09:30N 51°41' E 004°36'0 0.0
2017-Oct-21 09:00N 51°41' E 004°36'0 0.0
2017-Oct-21 08:30N 51°41' E 004°36'0 0.0
2017-Oct-21 08:00N 51°41' E 004°36'0 0.0
2017-Oct-21 07:30N 51°41' E 004°36'0 0.0
2017-Oct-21 06:57N 51°41' E 004°36'0 0.0
2017-Oct-21 06:30N 51°41' E 004°36'0 0.0
2017-Oct-21 05:54N 51°41' E 004°36'0 0.0
2017-Oct-21 05:30N 51°41' E 004°36'0 0.0
2017-Oct-21 05:00N 51°41' E 004°36'0 0.2
2017-Oct-21 04:27N 51°41' E 004°36'0 0.0
2017-Oct-21 03:57N 51°41' E 004°36'0 0.0
2017-Oct-21 03:29N 51°41' E 004°36'0 0.0
2017-Oct-21 02:59N 51°41' E 004°36'0 0.0
2017-Oct-21 02:21N 51°41' E 004°36'0 0.0
2017-Oct-21 01:59N 51°41' E 004°36'0 0.0
2017-Oct-21 01:27N 51°41' E 004°36'0 0.0
2017-Oct-21 00:57N 51°41' E 004°36'0 0.0
2017-Oct-21 00:30N 51°41' E 004°36'0 0.0
2017-Oct-21 00:00N 51°41' E 004°36'0 0.0
2017-Oct-20 23:27N 51°41' E 004°36'0 0.0
2017-Oct-20 22:54N 51°41' E 004°36'0 0.0
2017-Oct-20 22:30N 51°41' E 004°36'0 0.0
2017-Oct-20 21:57N 51°41' E 004°36'0 0.0
2017-Oct-20 21:27N 51°41' E 004°36'0 0.0
2017-Oct-20 21:00N 51°41' E 004°36'0 0.0
2017-Oct-20 20:30N 51°41' E 004°36'0 0.0
2017-Oct-20 20:00N 51°41' E 004°36'0 0.0
2017-Oct-20 19:30N 51°41' E 004°36'0 0.0
2017-Oct-20 19:00N 51°41' E 004°36'0 0.0
2017-Oct-20 18:27N 51°41' E 004°36'0 0.0
2017-Oct-20 18:00N 51°41' E 004°36'0 0.0
2017-Oct-20 17:27N 51°41' E 004°36'0 0.0
2017-Oct-20 17:00N 51°41' E 004°36'0 0.0
2017-Oct-20 16:30N 51°41' E 004°36'0 0.0
2017-Oct-20 16:00N 51°41' E 004°36'0 0.0
2017-Oct-20 15:27N 51°41' E 004°36'0 0.0
2017-Oct-20 15:00N 51°41' E 004°36'0 0.0
2017-Oct-20 14:27N 51°41' E 004°36'0 0.2
2017-Oct-20 13:30N 51°41' E 004°36'0 0.0
2017-Oct-20 12:58N 51°41' E 004°36'0 0.0
2017-Oct-20 12:30N 51°41' E 004°36'0 0.0
2017-Oct-20 12:00N 51°41' E 004°36'0 0.0
2017-Oct-20 11:30N 51°41' E 004°36'0 0.0
2017-Oct-20 10:54N 51°41' E 004°36'0 0.0
2017-Oct-20 10:30N 51°41' E 004°36'0 0.0
2017-Oct-20 10:00N 51°41' E 004°36'0 0.0
2017-Oct-20 09:30N 51°41' E 004°36'0 0.0
2017-Oct-20 09:00N 51°41' E 004°36'0 0.0
2017-Oct-20 08:30N 51°41' E 004°36'0 0.0
2017-Oct-20 07:58N 51°41' E 004°36'0 0.0
2017-Oct-20 07:25N 51°41' E 004°36'0 0.3
2017-Oct-20 07:01N 51°41' E 004°36'1 1.6
2017-Oct-20 06:31N 51°42' E 004°35'4 8.5
2017-Oct-20 06:01N 51°46' E 004°38'4 8.5
2017-Oct-20 05:31N 51°49' E 004°34'510.7
2017-Oct-20 05:01N 51°50' E 004°25'5 9.9
2017-Oct-20 04:30N 51°54' E 004°19'612.7
2017-Oct-20 04:00N 51°57' E 004°10'815.4
2017-Oct-20 03:31N 52°00' E 003°59'714.0
2017-Oct-20 03:00N 51°60' E 003°48'713.3
2017-Oct-20 02:30N 51°57' E 003°38'713.1
2017-Oct-20 01:58N 51°55' E 003°27'4513.5
2017-Oct-19 22:36N 51°35' E 002°21'215.0
2017-Oct-19 22:29N 51°34' E 002°19'714.7
2017-Oct-19 22:01N 51°29' E 002°12'714.1
2017-Oct-19 21:31N 51°24' E 002°03'713.3
2017-Oct-19 21:00N 51°25' E 001°52'713.9
2017-Oct-19 20:30N 51°28' E 001°42'713.3
2017-Oct-19 20:00N 51°28' E 001°31'713.9
2017-Oct-19 19:30N 51°28' E 001°20'713.8
2017-Oct-19 19:00N 51°29' E 001°09'714.7
2017-Oct-19 18:30N 51°29' E 000°57'5 0.6
2017-Oct-19 09:34N 51°28' E 000°49'517.2
2017-Oct-19 09:17N 51°29' E 000°56'516.8
2017-Oct-19 09:01N 51°30' E 001°04'816.8
2017-Oct-19 08:31N 51°29' E 001°17'816.5
2017-Oct-19 08:00N 51°29' E 001°30'817.0
2017-Oct-19 07:31N 51°33' E 001°42'917.1
2017-Oct-19 07:01N 51°38' E 001°54'817.0
2017-Oct-19 06:31N 51°43' E 002°05'816.3
2017-Oct-19 06:01N 51°47' E 002°16'815.9
2017-Oct-19 05:30N 51°52' E 002°27'815.6
2017-Oct-19 04:59N 51°56' E 002°38'815.3
2017-Oct-19 04:29N 52°00' E 002°48'1215.1
2017-Oct-19 03:43N 52°02' E 003°07'615.1
2017-Oct-19 03:21N 52°03' E 003°16'514.9
2017-Oct-19 03:00N 52°03' E 003°24'814.7
2017-Oct-19 02:30N 52°04' E 003°36'714.5
2017-Oct-19 02:01N 52°03' E 003°48'611.6
2017-Oct-19 01:31N 52°02' E 003°57'714.5
2017-Oct-19 01:00N 51°59' E 004°07'612.9
2017-Oct-19 00:30N 51°55' E 004°15'5 9.2
2017-Oct-19 00:00N 51°51' E 004°21'4 8.0
2017-Oct-18 23:30N 51°50' E 004°27'4 8.4
2017-Oct-18 23:00N 51°49' E 004°34'4 7.5
2017-Oct-18 22:30N 51°46' E 004°38'4 8.1
2017-Oct-18 22:01N 51°42' E 004°37'2 3.4
2017-Oct-18 21:30N 51°41' E 004°36'0 0.0
2017-Oct-18 21:00N 51°41' E 004°36'0 0.0
2017-Oct-18 20:31N 51°41' E 004°36'0 0.0
2017-Oct-18 20:00N 51°41' E 004°36'0 0.0
2017-Oct-18 19:30N 51°41' E 004°36'0 0.0
2017-Oct-18 19:01N 51°41' E 004°36'0 0.0
2017-Oct-18 18:31N 51°41' E 004°36'0 0.0
2017-Oct-18 18:01N 51°41' E 004°36'0 0.0
2017-Oct-18 17:30N 51°41' E 004°36'0 0.0
2017-Oct-18 17:00N 51°41' E 004°36'0 0.0
2017-Oct-18 16:30N 51°41' E 004°36'0 0.0
2017-Oct-18 16:01N 51°41' E 004°36'0 0.0
2017-Oct-18 15:31N 51°41' E 004°36'0 0.0
2017-Oct-18 15:00N 51°41' E 004°36'0 0.0
2017-Oct-18 14:01N 51°41' E 004°36'0 0.0
2017-Oct-18 13:31N 51°41' E 004°36'0 0.0
2017-Oct-18 13:01N 51°41' E 004°36'0 0.0
2017-Oct-18 12:30N 51°41' E 004°36'0 0.0
2017-Oct-18 12:01N 51°41' E 004°36'0 0.0
2017-Oct-18 11:31N 51°41' E 004°36'0 0.0
2017-Oct-18 11:01N 51°41' E 004°36'0 0.0
2017-Oct-18 10:31N 51°41' E 004°36'0 0.0
2017-Oct-18 10:01N 51°41' E 004°36'0 0.0
2017-Oct-18 09:30N 51°41' E 004°36'0 0.0
2017-Oct-18 09:00N 51°41' E 004°36'0 0.0
2017-Oct-18 08:31N 51°41' E 004°36'0 0.0
2017-Oct-18 08:00N 51°41' E 004°36'0 0.0
2017-Oct-18 07:31N 51°41' E 004°36'0 0.0
2017-Oct-18 07:01N 51°41' E 004°36'0 0.8
2017-Oct-18 06:30N 51°41' E 004°35'4 8.6
2017-Oct-18 06:01N 51°45' E 004°38'5 9.0
2017-Oct-18 05:30N 51°49' E 004°34'510.9
2017-Oct-18 05:00N 51°51' E 004°25'4 8.6
2017-Oct-18 04:30N 51°53' E 004°20'510.4
2017-Oct-18 04:00N 51°56' E 004°13'815.4
2017-Oct-18 03:30N 51°60' E 004°01'816.0
2017-Oct-18 03:00N 52°00' E 003°48'612.5
2017-Oct-18 02:30N 51°58' E 003°39'712.9
2017-Oct-18 02:00N 51°57' E 003°28'713.0
2017-Oct-18 01:29N 51°55' E 003°18'613.2
2017-Oct-18 01:00N 51°53' E 003°08'1013.7
2017-Oct-18 00:17N 51°51' E 002°53'415.1
2017-Oct-18 00:00N 51°49' E 002°46'714.6
2017-Oct-17 23:30N 51°46' E 002°36'815.8
2017-Oct-17 23:01N 51°40' E 002°27'815.6
2017-Oct-17 22:30N 51°34' E 002°19'815.4
2017-Oct-17 22:00N 51°28' E 002°11'714.9
2017-Oct-17 21:30N 51°24' E 002°02'714.1
2017-Oct-17 21:00N 51°26' E 001°51'714.1
2017-Oct-17 20:30N 51°28' E 001°40'713.6
2017-Oct-17 20:01N 51°29' E 001°29'713.5
2017-Oct-17 19:31N 51°29' E 001°18'612.5
2017-Oct-17 19:00N 51°29' E 001°08'612.4
2017-Oct-17 18:31N 51°29' E 000°58'714.5
2017-Oct-17 18:00N 51°28' E 000°47'4 0.8
2017-Oct-17 12:45N 51°26' E 000°41'0 0.1
2017-Oct-17 12:27N 51°26' E 000°41'2 0.6
2017-Oct-17 09:53N 51°26' E 000°44'712.1
2017-Oct-17 09:21N 51°29' E 000°53'412.5
2017-Oct-17 09:00N 51°30' E 001°00'612.3
2017-Oct-17 08:30N 51°29' E 001°10'713.2
2017-Oct-17 08:00N 51°29' E 001°20'713.8
2017-Oct-17 07:30N 51°29' E 001°31'815.1
2017-Oct-17 07:00N 51°33' E 001°42'816.0
2017-Oct-17 06:30N 51°38' E 001°52'816.0
2017-Oct-17 06:00N 51°42' E 002°03'4314.2
2017-Oct-17 02:58N 52°03' E 003°04'713.3
2017-Oct-17 02:28N 52°04' E 003°15'612.8
2017-Oct-17 02:00N 52°04' E 003°25'713.5
2017-Oct-17 01:30N 52°04' E 003°35'713.6
2017-Oct-17 01:00N 52°04' E 003°46'611.4
2017-Oct-17 00:30N 52°02' E 003°55'714.0
2017-Oct-17 00:00N 51°59' E 004°05'612.5
2017-Oct-16 23:30N 51°56' E 004°14'510.4
2017-Oct-16 23:01N 51°52' E 004°20'4 8.6
2017-Oct-16 22:31N 51°50' E 004°26'5 9.7
2017-Oct-16 22:01N 51°49' E 004°34'4 8.2
2017-Oct-16 21:30N 51°46' E 004°38'4 8.2
2017-Oct-16 21:00N 51°42' E 004°35'1 1.7
2017-Oct-16 20:30N 51°41' E 004°36'0 0.0
2017-Oct-16 20:00N 51°41' E 004°36'0 0.0
2017-Oct-16 19:30N 51°41' E 004°36'0 0.0
2017-Oct-16 19:00N 51°41' E 004°36'0 0.0
2017-Oct-16 18:30N 51°41' E 004°36'0 0.0
2017-Oct-16 18:00N 51°41' E 004°36'0 0.0
2017-Oct-16 17:30N 51°41' E 004°36'0 0.0
2017-Oct-16 17:00N 51°41' E 004°36'0 0.0
2017-Oct-16 16:30N 51°41' E 004°36'0 0.0
2017-Oct-16 16:00N 51°41' E 004°36'0 0.0
2017-Oct-16 15:30N 51°41' E 004°36'0 0.0
2017-Oct-16 15:00N 51°41' E 004°36'0 0.0
2017-Oct-16 14:00N 51°41' E 004°36'0 0.0
2017-Oct-16 13:30N 51°41' E 004°36'0 0.0
2017-Oct-16 13:00N 51°41' E 004°36'0 0.0
2017-Oct-16 12:30N 51°41' E 004°36'0 0.0
2017-Oct-16 12:00N 51°41' E 004°36'0 0.0
2017-Oct-16 11:30N 51°41' E 004°36'0 0.0
2017-Oct-16 11:00N 51°41' E 004°36'0 0.0
2017-Oct-16 10:30N 51°41' E 004°36'0 0.0
2017-Oct-16 10:00N 51°41' E 004°36'0 0.0
2017-Oct-16 09:30N 51°41' E 004°36'0 0.0
2017-Oct-16 09:00N 51°41' E 004°36'0 0.0
2017-Oct-16 08:30N 51°41' E 004°36'0 0.0
2017-Oct-16 08:00N 51°41' E 004°36'0 0.0
2017-Oct-16 07:30N 51°41' E 004°36'0 0.0
2017-Oct-16 07:00N 51°41' E 004°36'0 0.0
2017-Oct-16 06:30N 51°41' E 004°36'0 0.0
2017-Oct-16 06:00N 51°41' E 004°36'0 0.0
2017-Oct-16 05:30N 51°41' E 004°36'0 0.0
2017-Oct-16 05:00N 51°41' E 004°36'0 0.0
2017-Oct-16 04:30N 51°41' E 004°36'0 0.0
2017-Oct-16 04:00N 51°41' E 004°36'0 0.0
2017-Oct-16 03:30N 51°41' E 004°36'0 0.0
2017-Oct-16 03:00N 51°41' E 004°36'0 0.0
2017-Oct-16 02:30N 51°41' E 004°36'0 0.0
2017-Oct-16 02:00N 51°41' E 004°36'0 0.0
2017-Oct-16 01:30N 51°41' E 004°36'0 0.0
2017-Oct-16 01:00N 51°41' E 004°36'0 0.0
2017-Oct-16 00:30N 51°41' E 004°36'0 0.0
2017-Oct-16 00:00N 51°41' E 004°36'0 0.0
2017-Oct-15 23:30N 51°41' E 004°36'1 1.6
2017-Oct-15 23:00N 51°42' E 004°35'4 8.9
2017-Oct-15 22:30N 51°46' E 004°38'4 7.8
2017-Oct-15 22:00N 51°49' E 004°34'510.5
2017-Oct-15 21:31N 51°50' E 004°26'510.1
2017-Oct-15 21:01N 51°54' E 004°19'611.9
2017-Oct-15 20:31N 51°57' E 004°11'714.5
2017-Oct-15 20:01N 51°60' E 004°00'815.7
2017-Oct-15 19:31N 51°60' E 003°48'815.4
2017-Oct-15 19:00N 51°57' E 003°36'815.9
2017-Oct-15 18:29N 51°55' E 003°23'815.6
2017-Oct-15 18:00N 51°52' E 003°11'915.7
2017-Oct-15 17:24N 51°49' E 002°57'2015.0
2017-Oct-15 16:05N 51°40' E 002°29'115.5
2017-Oct-15 16:00N 51°39' E 002°27'815.8
2017-Oct-15 15:30N 51°33' E 002°19'816.3
2017-Oct-15 15:01N 51°27' E 002°10'1514.5
2017-Oct-15 14:01N 51°27' E 001°47'816.5
2017-Oct-15 13:30N 51°29' E 001°34'917.4
2017-Oct-15 13:01N 51°28' E 001°20'917.4
2017-Oct-15 12:30N 51°29' E 001°06'16 2.6
2017-Oct-15 06:14N 51°26' E 000°41'0 0.0
2017-Oct-15 05:35N 51°26' E 000°41'0 0.1
2017-Oct-15 05:28N 51°26' E 000°41'3 5.5
2017-Oct-15 04:57N 51°27' E 000°45'712.6
2017-Oct-15 04:22N 51°29' E 000°57'512.5
2017-Oct-15 04:00N 51°30' E 001°04'613.0
2017-Oct-15 03:31N 51°29' E 001°14'612.3
2017-Oct-15 03:00N 51°29' E 001°24'612.9
2017-Oct-15 02:30N 51°30' E 001°34'713.9
2017-Oct-15 02:00N 51°34' E 001°44'713.8
2017-Oct-15 01:30N 51°38' E 001°53'713.7
2017-Oct-15 01:00N 51°42' E 002°02'713.6
2017-Oct-15 00:30N 51°46' E 002°11'913.3
2017-Oct-14 23:49N 51°50' E 002°23'613.9
2017-Oct-14 23:24N 51°54' E 002°31'713.6
2017-Oct-14 22:52N 51°58' E 002°40'410.8
2017-Oct-14 22:27N 52°00' E 002°46'512.1
2017-Oct-14 22:00N 52°02' E 002°55'712.9
2017-Oct-14 21:30N 52°02' E 003°05'713.3
2017-Oct-14 21:00N 52°03' E 003°16'713.3
2017-Oct-14 20:30N 52°03' E 003°27'713.4
2017-Oct-14 20:00N 52°03' E 003°38'713.7
2017-Oct-14 19:31N 52°02' E 003°49'5 9.6
2017-Oct-14 19:00N 52°02' E 003°57'714.8
2017-Oct-14 18:30N 51°58' E 004°07'713.8
2017-Oct-14 18:01N 51°54' E 004°16'510.8
2017-Oct-14 17:30N 51°51' E 004°23'611.8
2017-Oct-14 17:00N 51°50' E 004°32'5 9.2
2017-Oct-14 16:30N 51°47' E 004°38'5 9.8
2017-Oct-14 16:00N 51°42' E 004°36'1 2.0
2017-Oct-14 15:30N 51°41' E 004°36'0 0.0
2017-Oct-14 15:00N 51°41' E 004°36'0 0.0
2017-Oct-14 14:30N 51°41' E 004°36'0 0.0
2017-Oct-14 14:00N 51°41' E 004°36'0 0.0
2017-Oct-14 13:30N 51°41' E 004°36'0 0.0
2017-Oct-14 13:00N 51°41' E 004°36'0 0.0
2017-Oct-14 12:30N 51°41' E 004°36'0 0.0
2017-Oct-14 12:00N 51°41' E 004°36'0 0.0
2017-Oct-14 11:30N 51°41' E 004°36'0 0.0
2017-Oct-14 11:00N 51°41' E 004°36'0 0.0
2017-Oct-14 10:30N 51°41' E 004°36'0 0.0
2017-Oct-14 10:00N 51°41' E 004°36'0 0.0
2017-Oct-14 09:30N 51°41' E 004°36'0 0.0
2017-Oct-14 09:01N 51°41' E 004°36'0 0.0
2017-Oct-14 08:30N 51°41' E 004°36'0 0.0
2017-Oct-14 08:00N 51°41' E 004°36'0 0.0
2017-Oct-14 07:30N 51°41' E 004°36'0 0.0
2017-Oct-14 07:00N 51°41' E 004°36'0 0.0
2017-Oct-14 06:30N 51°41' E 004°36'0 0.0
2017-Oct-14 06:00N 51°41' E 004°36'0 0.0
2017-Oct-14 05:30N 51°41' E 004°36'0 0.0
2017-Oct-14 05:00N 51°41' E 004°36'0 0.0
2017-Oct-14 04:30N 51°41' E 004°36'0 0.0
2017-Oct-14 04:00N 51°41' E 004°36'0 0.0
2017-Oct-14 03:30N 51°41' E 004°36'0 0.0
2017-Oct-14 03:00N 51°41' E 004°36'0 0.0
2017-Oct-14 02:30N 51°41' E 004°36'0 0.0
2017-Oct-14 02:00N 51°41' E 004°36'0 0.0
2017-Oct-14 01:30N 51°41' E 004°36'0 0.0
2017-Oct-14 01:00N 51°41' E 004°36'0 0.0
2017-Oct-14 00:30N 51°41' E 004°36'0 0.0
2017-Oct-14 00:00N 51°41' E 004°36'0 0.0
2017-Oct-13 23:30N 51°41' E 004°36'0 0.0
2017-Oct-13 22:59N 51°41' E 004°36'0 0.0
2017-Oct-13 22:30N 51°41' E 004°36'0 0.1
2017-Oct-13 22:00N 51°41' E 004°36'3 5.9
2017-Oct-13 21:30N 51°44' E 004°38'5 9.6
2017-Oct-13 21:00N 51°48' E 004°36'4 8.4
2017-Oct-13 20:30N 51°50' E 004°30'5 9.8
2017-Oct-13 20:00N 51°51' E 004°22'611.1
2017-Oct-13 19:30N 51°55' E 004°15'714.0
2017-Oct-13 19:01N 51°59' E 004°06'917.7
2017-Oct-13 18:30N 52°00' E 003°52'815.0
2017-Oct-13 18:00N 52°03' E 003°41'816.4
2017-Oct-13 17:30N 52°08' E 003°30'816.2
2017-Oct-13 17:00N 52°12' E 003°19'5216.3
2017-Oct-13 13:49N 52°42' E 002°08'517.4
2017-Oct-13 13:30N 52°45' E 002°01'917.9
2017-Oct-13 13:00N 52°50' E 001°49'917.9
2017-Oct-13 12:31N 52°54' E 001°36'917.9
2017-Oct-13 12:00N 52°58' E 001°23'917.7
2017-Oct-13 11:30N 53°01' E 001°09'5115.5
2017-Oct-13 08:15N 53°34' E 000°05'313.2
2017-Oct-13 08:01N 53°35' W 000°00'713.2
2017-Oct-13 07:30N 53°38' W 000°11'1 1.2
2017-Oct-13 07:01N 53°38' W 000°12'0 0.1
2017-Oct-13 06:24N 53°38' W 000°12'0 0.0
2017-Oct-13 06:00N 53°38' W 000°12'0 0.0
2017-Oct-13 05:29N 53°38' W 000°12'0 0.0
2017-Oct-13 04:03N 53°38' W 000°12'0 0.0
2017-Oct-13 03:58N 53°38' W 000°12'0 0.0
2017-Oct-13 03:31N 53°38' W 000°12'0 0.0
2017-Oct-13 02:51N 53°38' W 000°12'0 0.0
2017-Oct-13 02:30N 53°38' W 000°12'0 0.0
2017-Oct-13 00:28N 53°38' W 000°12'0 0.0
2017-Oct-13 00:00N 53°38' W 000°12'0 0.0
2017-Oct-12 23:30N 53°38' W 000°12'0 0.0
2017-Oct-12 23:01N 53°38' W 000°12'0 0.0
2017-Oct-12 22:30N 53°38' W 000°12'0 0.0
2017-Oct-12 22:00N 53°38' W 000°12'0 0.0
2017-Oct-12 21:30N 53°38' W 000°12'0 0.0
2017-Oct-12 21:00N 53°38' W 000°12'0 0.0
2017-Oct-12 20:30N 53°38' W 000°12'0 0.2
2017-Oct-12 20:00N 53°38' W 000°11'0 0.1
2017-Oct-12 19:30N 53°38' W 000°11'0 0.5
2017-Oct-12 19:00N 53°38' W 000°11'2 3.4
2017-Oct-12 18:30N 53°38' W 000°08'  
Track history (hours):
 
Tides and Currents Weather Stations Pressure Air Temp Water Temp Dewpoint Dewpoint Depression Visibility Wind Speed Wind Dir Waves Ship Positions

Ankergracht

Last reported at 2017-Oct-22 15:30 UTC. Time now 2017-Oct-22 15:53 UTC.
Position N 51°28' E 001°21'.

Length 130 m; beam 19 m; draft 9 m.

Type: Ship (hazmat cat A). MMSI: 244110390.

Date/timePositionNaut miles runAvg speedWind from/ knotsBaromVisibWave heightAir tempDewpointWater temp
2017-Oct-22 15:30N 51°28' E 001°21'816.0
2017-Oct-22 15:00N 51°29' E 001°08'1015.7
2017-Oct-22 14:23N 51°29' E 000°53'1 0.1
2017-Oct-22 05:56N 51°29' E 000°54'613.7
2017-Oct-22 05:30N 51°30' E 001°03'612.7
2017-Oct-22 05:00N 51°29' E 001°13'613.0
2017-Oct-22 04:30N 51°29' E 001°24'713.5
2017-Oct-22 04:00N 51°31' E 001°34'713.1
2017-Oct-22 03:30N 51°34' E 001°43'612.7
2017-Oct-22 03:00N 51°38' E 001°52'611.8
2017-Oct-22 02:30N 51°41' E 001°59'711.4
2017-Oct-22 01:56N 51°45' E 002°08'57 9.6
2017-Oct-21 19:58N 52°04' E 003°35'4 9.1
2017-Oct-21 19:30N 52°03' E 003°42'5 9.0
2017-Oct-21 19:00N 52°02' E 003°49'5 9.9
2017-Oct-21 18:30N 52°01' E 003°57'713.6
2017-Oct-21 18:00N 51°59' E 004°07'714.4
2017-Oct-21 17:30N 51°54' E 004°16'510.2
2017-Oct-21 17:00N 51°51' E 004°22'5 9.3
2017-Oct-21 16:30N 51°50' E 004°30'4 7.9
2017-Oct-21 16:00N 51°48' E 004°36'4 7.2
2017-Oct-21 15:30N 51°45' E 004°38'4 7.7
2017-Oct-21 15:00N 51°42' E 004°35'1 0.6
2017-Oct-21 13:57N 51°41' E 004°36'0 0.0
2017-Oct-21 13:27N 51°41' E 004°36'0 0.0
2017-Oct-21 13:00N 51°41' E 004°36'0 0.0
2017-Oct-21 12:30N 51°41' E 004°36'0 0.0
2017-Oct-21 11:48N 51°41' E 004°36'0 0.0
2017-Oct-21 11:30N 51°41' E 004°36'0 0.0
2017-Oct-21 11:00N 51°41' E 004°36'0 0.0
2017-Oct-21 10:30N 51°41' E 004°36'0 0.0
2017-Oct-21 09:54N 51°41' E 004°36'0 0.0
2017-Oct-21 09:30N 51°41' E 004°36'0 0.0
2017-Oct-21 09:00N 51°41' E 004°36'0 0.0
2017-Oct-21 08:30N 51°41' E 004°36'0 0.0
2017-Oct-21 08:00N 51°41' E 004°36'0 0.0
2017-Oct-21 07:30N 51°41' E 004°36'0 0.0
2017-Oct-21 06:57N 51°41' E 004°36'0 0.0
2017-Oct-21 06:30N 51°41' E 004°36'0 0.0
2017-Oct-21 05:54N 51°41' E 004°36'0 0.0
2017-Oct-21 05:30N 51°41' E 004°36'0 0.0
2017-Oct-21 05:00N 51°41' E 004°36'0 0.2
2017-Oct-21 04:27N 51°41' E 004°36'0 0.0
2017-Oct-21 03:57N 51°41' E 004°36'0 0.0
2017-Oct-21 03:29N 51°41' E 004°36'0 0.0
2017-Oct-21 02:59N 51°41' E 004°36'0 0.0
2017-Oct-21 02:21N 51°41' E 004°36'0 0.0
2017-Oct-21 01:59N 51°41' E 004°36'0 0.0
2017-Oct-21 01:27N 51°41' E 004°36'0 0.0
2017-Oct-21 00:57N 51°41' E 004°36'0 0.0
2017-Oct-21 00:30N 51°41' E 004°36'0 0.0
2017-Oct-21 00:00N 51°41' E 004°36'0 0.0
2017-Oct-20 23:27N 51°41' E 004°36'0 0.0
2017-Oct-20 22:54N 51°41' E 004°36'0 0.0
2017-Oct-20 22:30N 51°41' E 004°36'0 0.0
2017-Oct-20 21:57N 51°41' E 004°36'0 0.0
2017-Oct-20 21:27N 51°41' E 004°36'0 0.0
2017-Oct-20 21:00N 51°41' E 004°36'0 0.0
2017-Oct-20 20:30N 51°41' E 004°36'0 0.0
2017-Oct-20 20:00N 51°41' E 004°36'0 0.0
2017-Oct-20 19:30N 51°41' E 004°36'0 0.0
2017-Oct-20 19:00N 51°41' E 004°36'0 0.0
2017-Oct-20 18:27N 51°41' E 004°36'0 0.0
2017-Oct-20 18:00N 51°41' E 004°36'0 0.0
2017-Oct-20 17:27N 51°41' E 004°36'0 0.0
2017-Oct-20 17:00N 51°41' E 004°36'0 0.0
2017-Oct-20 16:30N 51°41' E 004°36'0 0.0
2017-Oct-20 16:00N 51°41' E 004°36'0 0.0
2017-Oct-20 15:27N 51°41' E 004°36'0 0.0
2017-Oct-20 15:00N 51°41' E 004°36'0 0.0
2017-Oct-20 14:27N 51°41' E 004°36'0 0.2
2017-Oct-20 13:30N 51°41' E 004°36'0 0.0
2017-Oct-20 12:58N 51°41' E 004°36'0 0.0
2017-Oct-20 12:30N 51°41' E 004°36'0 0.0
2017-Oct-20 12:00N 51°41' E 004°36'0 0.0
2017-Oct-20 11:30N 51°41' E 004°36'0 0.0
2017-Oct-20 10:54N 51°41' E 004°36'0 0.0
2017-Oct-20 10:30N 51°41' E 004°36'0 0.0
2017-Oct-20 10:00N 51°41' E 004°36'0 0.0
2017-Oct-20 09:30N 51°41' E 004°36'0 0.0
2017-Oct-20 09:00N 51°41' E 004°36'0 0.0
2017-Oct-20 08:30N 51°41' E 004°36'0 0.0
2017-Oct-20 07:58N 51°41' E 004°36'0 0.0
2017-Oct-20 07:25N 51°41' E 004°36'0 0.3
2017-Oct-20 07:01N 51°41' E 004°36'1 1.6
2017-Oct-20 06:31N 51°42' E 004°35'4 8.5
2017-Oct-20 06:01N 51°46' E 004°38'4 8.5
2017-Oct-20 05:31N 51°49' E 004°34'510.7
2017-Oct-20 05:01N 51°50' E 004°25'5 9.9
2017-Oct-20 04:30N 51°54' E 004°19'612.7
2017-Oct-20 04:00N 51°57' E 004°10'815.4
2017-Oct-20 03:31N 52°00' E 003°59'714.0
2017-Oct-20 03:00N 51°60' E 003°48'713.3
2017-Oct-20 02:30N 51°57' E 003°38'713.1
2017-Oct-20 01:58N 51°55' E 003°27'4513.5
2017-Oct-19 22:36N 51°35' E 002°21'215.0
2017-Oct-19 22:29N 51°34' E 002°19'714.7
2017-Oct-19 22:01N 51°29' E 002°12'714.1
2017-Oct-19 21:31N 51°24' E 002°03'713.3
2017-Oct-19 21:00N 51°25' E 001°52'713.9
2017-Oct-19 20:30N 51°28' E 001°42'713.3
2017-Oct-19 20:00N 51°28' E 001°31'713.9
2017-Oct-19 19:30N 51°28' E 001°20'713.8
2017-Oct-19 19:00N 51°29' E 001°09'714.7
2017-Oct-19 18:30N 51°29' E 000°57'5 0.6
2017-Oct-19 09:34N 51°28' E 000°49'517.2
2017-Oct-19 09:17N 51°29' E 000°56'516.8
2017-Oct-19 09:01N 51°30' E 001°04'816.8
2017-Oct-19 08:31N 51°29' E 001°17'816.5
2017-Oct-19 08:00N 51°29' E 001°30'817.0
2017-Oct-19 07:31N 51°33' E 001°42'917.1
2017-Oct-19 07:01N 51°38' E 001°54'817.0
2017-Oct-19 06:31N 51°43' E 002°05'816.3
2017-Oct-19 06:01N 51°47' E 002°16'815.9
2017-Oct-19 05:30N 51°52' E 002°27'815.6
2017-Oct-19 04:59N 51°56' E 002°38'815.3
2017-Oct-19 04:29N 52°00' E 002°48'1215.1
2017-Oct-19 03:43N 52°02' E 003°07'615.1
2017-Oct-19 03:21N 52°03' E 003°16'514.9
2017-Oct-19 03:00N 52°03' E 003°24'814.7
2017-Oct-19 02:30N 52°04' E 003°36'714.5
2017-Oct-19 02:01N 52°03' E 003°48'611.6
2017-Oct-19 01:31N 52°02' E 003°57'714.5
2017-Oct-19 01:00N 51°59' E 004°07'612.9
2017-Oct-19 00:30N 51°55' E 004°15'5 9.2
2017-Oct-19 00:00N 51°51' E 004°21'4 8.0
2017-Oct-18 23:30N 51°50' E 004°27'4 8.4
2017-Oct-18 23:00N 51°49' E 004°34'4 7.5
2017-Oct-18 22:30N 51°46' E 004°38'4 8.1
2017-Oct-18 22:01N 51°42' E 004°37'2 3.4
2017-Oct-18 21:30N 51°41' E 004°36'0 0.0
2017-Oct-18 21:00N 51°41' E 004°36'0 0.0
2017-Oct-18 20:31N 51°41' E 004°36'0 0.0
2017-Oct-18 20:00N 51°41' E 004°36'0 0.0
2017-Oct-18 19:30N 51°41' E 004°36'0 0.0
2017-Oct-18 19:01N 51°41' E 004°36'0 0.0
2017-Oct-18 18:31N 51°41' E 004°36'0 0.0
2017-Oct-18 18:01N 51°41' E 004°36'0 0.0
2017-Oct-18 17:30N 51°41' E 004°36'0 0.0
2017-Oct-18 17:00N 51°41' E 004°36'0 0.0
2017-Oct-18 16:30N 51°41' E 004°36'0 0.0
2017-Oct-18 16:01N 51°41' E 004°36'0 0.0
2017-Oct-18 15:31N 51°41' E 004°36'0 0.0
2017-Oct-18 15:00N 51°41' E 004°36'0 0.0
2017-Oct-18 14:01N 51°41' E 004°36'0 0.0
2017-Oct-18 13:31N 51°41' E 004°36'0 0.0
2017-Oct-18 13:01N 51°41' E 004°36'0 0.0
2017-Oct-18 12:30N 51°41' E 004°36'0 0.0
2017-Oct-18 12:01N 51°41' E 004°36'0 0.0
2017-Oct-18 11:31N 51°41' E 004°36'0 0.0
2017-Oct-18 11:01N 51°41' E 004°36'0 0.0
2017-Oct-18 10:31N 51°41' E 004°36'0 0.0
2017-Oct-18 10:01N 51°41' E 004°36'0 0.0
2017-Oct-18 09:30N 51°41' E 004°36'0 0.0
2017-Oct-18 09:00N 51°41' E 004°36'0 0.0
2017-Oct-18 08:31N 51°41' E 004°36'0 0.0
2017-Oct-18 08:00N 51°41' E 004°36'0 0.0
2017-Oct-18 07:31N 51°41' E 004°36'0 0.0
2017-Oct-18 07:01N 51°41' E 004°36'0 0.8
2017-Oct-18 06:30N 51°41' E 004°35'4 8.6
2017-Oct-18 06:01N 51°45' E 004°38'5 9.0
2017-Oct-18 05:30N 51°49' E 004°34'510.9
2017-Oct-18 05:00N 51°51' E 004°25'4 8.6
2017-Oct-18 04:30N 51°53' E 004°20'510.4
2017-Oct-18 04:00N 51°56' E 004°13'815.4
2017-Oct-18 03:30N 51°60' E 004°01'816.0
2017-Oct-18 03:00N 52°00' E 003°48'612.5
2017-Oct-18 02:30N 51°58' E 003°39'712.9
2017-Oct-18 02:00N 51°57' E 003°28'713.0
2017-Oct-18 01:29N 51°55' E 003°18'613.2
2017-Oct-18 01:00N 51°53' E 003°08'1013.7
2017-Oct-18 00:17N 51°51' E 002°53'415.1
2017-Oct-18 00:00N 51°49' E 002°46'714.6
2017-Oct-17 23:30N 51°46' E 002°36'815.8
2017-Oct-17 23:01N 51°40' E 002°27'815.6
2017-Oct-17 22:30N 51°34' E 002°19'815.4
2017-Oct-17 22:00N 51°28' E 002°11'714.9
2017-Oct-17 21:30N 51°24' E 002°02'714.1
2017-Oct-17 21:00N 51°26' E 001°51'714.1
2017-Oct-17 20:30N 51°28' E 001°40'713.6
2017-Oct-17 20:01N 51°29' E 001°29'713.5
2017-Oct-17 19:31N 51°29' E 001°18'612.5
2017-Oct-17 19:00N 51°29' E 001°08'612.4
2017-Oct-17 18:31N 51°29' E 000°58'714.5
2017-Oct-17 18:00N 51°28' E 000°47'4 0.8
2017-Oct-17 12:45N 51°26' E 000°41'0 0.1
2017-Oct-17 12:27N 51°26' E 000°41'2 0.6
2017-Oct-17 09:53N 51°26' E 000°44'712.1
2017-Oct-17 09:21N 51°29' E 000°53'412.5
2017-Oct-17 09:00N 51°30' E 001°00'612.3
2017-Oct-17 08:30N 51°29' E 001°10'713.2
2017-Oct-17 08:00N 51°29' E 001°20'713.8
2017-Oct-17 07:30N 51°29' E 001°31'815.1
2017-Oct-17 07:00N 51°33' E 001°42'816.0
2017-Oct-17 06:30N 51°38' E 001°52'816.0
2017-Oct-17 06:00N 51°42' E 002°03'4314.2
2017-Oct-17 02:58N 52°03' E 003°04'713.3
2017-Oct-17 02:28N 52°04' E 003°15'612.8
2017-Oct-17 02:00N 52°04' E 003°25'713.5
2017-Oct-17 01:30N 52°04' E 003°35'713.6
2017-Oct-17 01:00N 52°04' E 003°46'611.4
2017-Oct-17 00:30N 52°02' E 003°55'714.0
2017-Oct-17 00:00N 51°59' E 004°05'612.5
2017-Oct-16 23:30N 51°56' E 004°14'510.4
2017-Oct-16 23:01N 51°52' E 004°20'4 8.6
2017-Oct-16 22:31N 51°50' E 004°26'5 9.7
2017-Oct-16 22:01N 51°49' E 004°34'4 8.2
2017-Oct-16 21:30N 51°46' E 004°38'4 8.2
2017-Oct-16 21:00N 51°42' E 004°35'1 1.7
2017-Oct-16 20:30N 51°41' E 004°36'0 0.0
2017-Oct-16 20:00N 51°41' E 004°36'0 0.0
2017-Oct-16 19:30N 51°41' E 004°36'0 0.0
2017-Oct-16 19:00N 51°41' E 004°36'0 0.0
2017-Oct-16 18:30N 51°41' E 004°36'0 0.0
2017-Oct-16 18:00N 51°41' E 004°36'0 0.0
2017-Oct-16 17:30N 51°41' E 004°36'0 0.0
2017-Oct-16 17:00N 51°41' E 004°36'0 0.0
2017-Oct-16 16:30N 51°41' E 004°36'0 0.0
2017-Oct-16 16:00N 51°41' E 004°36'0 0.0
2017-Oct-16 15:30N 51°41' E 004°36'0 0.0
2017-Oct-16 15:00N 51°41' E 004°36'0 0.0
2017-Oct-16 14:00N 51°41' E 004°36'0 0.0
2017-Oct-16 13:30N 51°41' E 004°36'0 0.0
2017-Oct-16 13:00N 51°41' E 004°36'0 0.0
2017-Oct-16 12:30N 51°41' E 004°36'0 0.0
2017-Oct-16 12:00N 51°41' E 004°36'0 0.0
2017-Oct-16 11:30N 51°41' E 004°36'0 0.0
2017-Oct-16 11:00N 51°41' E 004°36'0 0.0
2017-Oct-16 10:30N 51°41' E 004°36'0 0.0
2017-Oct-16 10:00N 51°41' E 004°36'0 0.0
2017-Oct-16 09:30N 51°41' E 004°36'0 0.0
2017-Oct-16 09:00N 51°41' E 004°36'0 0.0
2017-Oct-16 08:30N 51°41' E 004°36'0 0.0
2017-Oct-16 08:00N 51°41' E 004°36'0 0.0
2017-Oct-16 07:30N 51°41' E 004°36'0 0.0
2017-Oct-16 07:00N 51°41' E 004°36'0 0.0
2017-Oct-16 06:30N 51°41' E 004°36'0 0.0
2017-Oct-16 06:00N 51°41' E 004°36'0 0.0
2017-Oct-16 05:30N 51°41' E 004°36'0 0.0
2017-Oct-16 05:00N 51°41' E 004°36'0 0.0
2017-Oct-16 04:30N 51°41' E 004°36'0 0.0
2017-Oct-16 04:00N 51°41' E 004°36'0 0.0
2017-Oct-16 03:30N 51°41' E 004°36'0 0.0
2017-Oct-16 03:00N 51°41' E 004°36'0 0.0
2017-Oct-16 02:30N 51°41' E 004°36'0 0.0
2017-Oct-16 02:00N 51°41' E 004°36'0 0.0
2017-Oct-16 01:30N 51°41' E 004°36'0 0.0
2017-Oct-16 01:00N 51°41' E 004°36'0 0.0
2017-Oct-16 00:30N 51°41' E 004°36'0 0.0
2017-Oct-16 00:00N 51°41' E 004°36'0 0.0
2017-Oct-15 23:30N 51°41' E 004°36'1 1.6
2017-Oct-15 23:00N 51°42' E 004°35'4 8.9
2017-Oct-15 22:30N 51°46' E 004°38'4 7.8
2017-Oct-15 22:00N 51°49' E 004°34'510.5
2017-Oct-15 21:31N 51°50' E 004°26'510.1
2017-Oct-15 21:01N 51°54' E 004°19'611.9
2017-Oct-15 20:31N 51°57' E 004°11'714.5
2017-Oct-15 20:01N 51°60' E 004°00'815.7
2017-Oct-15 19:31N 51°60' E 003°48'815.4
2017-Oct-15 19:00N 51°57' E 003°36'815.9
2017-Oct-15 18:29N 51°55' E 003°23'815.6
2017-Oct-15 18:00N 51°52' E 003°11'915.7
2017-Oct-15 17:24N 51°49' E 002°57'2015.0
2017-Oct-15 16:05N 51°40' E 002°29'115.5
2017-Oct-15 16:00N 51°39' E 002°27'815.8
2017-Oct-15 15:30N 51°33' E 002°19'816.3
2017-Oct-15 15:01N 51°27' E 002°10'1514.5
2017-Oct-15 14:01N 51°27' E 001°47'816.5
2017-Oct-15 13:30N 51°29' E 001°34'917.4
2017-Oct-15 13:01N 51°28' E 001°20'917.4
2017-Oct-15 12:30N 51°29' E 001°06'16 2.6
2017-Oct-15 06:14N 51°26' E 000°41'0 0.0
2017-Oct-15 05:35N 51°26' E 000°41'0 0.1
2017-Oct-15 05:28N 51°26' E 000°41'3 5.5
2017-Oct-15 04:57N 51°27' E 000°45'712.6
2017-Oct-15 04:22N 51°29' E 000°57'512.5
2017-Oct-15 04:00N 51°30' E 001°04'613.0
2017-Oct-15 03:31N 51°29' E 001°14'612.3
2017-Oct-15 03:00N 51°29' E 001°24'612.9
2017-Oct-15 02:30N 51°30' E 001°34'713.9
2017-Oct-15 02:00N 51°34' E 001°44'713.8
2017-Oct-15 01:30N 51°38' E 001°53'713.7
2017-Oct-15 01:00N 51°42' E 002°02'713.6
2017-Oct-15 00:30N 51°46' E 002°11'913.3
2017-Oct-14 23:49N 51°50' E 002°23'613.9
2017-Oct-14 23:24N 51°54' E 002°31'713.6
2017-Oct-14 22:52N 51°58' E 002°40'410.8
2017-Oct-14 22:27N 52°00' E 002°46'512.1
2017-Oct-14 22:00N 52°02' E 002°55'712.9
2017-Oct-14 21:30N 52°02' E 003°05'713.3
2017-Oct-14 21:00N 52°03' E 003°16'713.3
2017-Oct-14 20:30N 52°03' E 003°27'713.4
2017-Oct-14 20:00N 52°03' E 003°38'713.7
2017-Oct-14 19:31N 52°02' E 003°49'5 9.6
2017-Oct-14 19:00N 52°02' E 003°57'714.8
2017-Oct-14 18:30N 51°58' E 004°07'713.8
2017-Oct-14 18:01N 51°54' E 004°16'510.8
2017-Oct-14 17:30N 51°51' E 004°23'611.8
2017-Oct-14 17:00N 51°50' E 004°32'5 9.2
2017-Oct-14 16:30N 51°47' E 004°38'5 9.8
2017-Oct-14 16:00N 51°42' E 004°36'1 2.0
2017-Oct-14 15:30N 51°41' E 004°36'0 0.0
2017-Oct-14 15:00N 51°41' E 004°36'0 0.0
2017-Oct-14 14:30N 51°41' E 004°36'0 0.0
2017-Oct-14 14:00N 51°41' E 004°36'0 0.0
2017-Oct-14 13:30N 51°41' E 004°36'0 0.0
2017-Oct-14 13:00N 51°41' E 004°36'0 0.0
2017-Oct-14 12:30N 51°41' E 004°36'0 0.0
2017-Oct-14 12:00N 51°41' E 004°36'0 0.0
2017-Oct-14 11:30N 51°41' E 004°36'0 0.0
2017-Oct-14 11:00N 51°41' E 004°36'0 0.0
2017-Oct-14 10:30N 51°41' E 004°36'0 0.0
2017-Oct-14 10:00N 51°41' E 004°36'0 0.0
2017-Oct-14 09:30N 51°41' E 004°36'0 0.0
2017-Oct-14 09:01N 51°41' E 004°36'0 0.0
2017-Oct-14 08:30N 51°41' E 004°36'0 0.0
2017-Oct-14 08:00N 51°41' E 004°36'0 0.0
2017-Oct-14 07:30N 51°41' E 004°36'0 0.0
2017-Oct-14 07:00N 51°41' E 004°36'0 0.0
2017-Oct-14 06:30N 51°41' E 004°36'0 0.0
2017-Oct-14 06:00N 51°41' E 004°36'0 0.0
2017-Oct-14 05:30N 51°41' E 004°36'0 0.0
2017-Oct-14 05:00N 51°41' E 004°36'0 0.0
2017-Oct-14 04:30N 51°41' E 004°36'0 0.0
2017-Oct-14 04:00N 51°41' E 004°36'0 0.0
2017-Oct-14 03:30N 51°41' E 004°36'0 0.0
2017-Oct-14 03:00N 51°41' E 004°36'0 0.0
2017-Oct-14 02:30N 51°41' E 004°36'0 0.0
2017-Oct-14 02:00N 51°41' E 004°36'0 0.0
2017-Oct-14 01:30N 51°41' E 004°36'0 0.0
2017-Oct-14 01:00N 51°41' E 004°36'0 0.0
2017-Oct-14 00:30N 51°41' E 004°36'0 0.0
2017-Oct-14 00:00N 51°41' E 004°36'0 0.0
2017-Oct-13 23:30N 51°41' E 004°36'0 0.0
2017-Oct-13 22:59N 51°41' E 004°36'0 0.0
2017-Oct-13 22:30N 51°41' E 004°36'0 0.1
2017-Oct-13 22:00N 51°41' E 004°36'3 5.9
2017-Oct-13 21:30N 51°44' E 004°38'5 9.6
2017-Oct-13 21:00N 51°48' E 004°36'4 8.4
2017-Oct-13 20:30N 51°50' E 004°30'5 9.8
2017-Oct-13 20:00N 51°51' E 004°22'611.1
2017-Oct-13 19:30N 51°55' E 004°15'714.0
2017-Oct-13 19:01N 51°59' E 004°06'917.7
2017-Oct-13 18:30N 52°00' E 003°52'815.0
2017-Oct-13 18:00N 52°03' E 003°41'816.4
2017-Oct-13 17:30N 52°08' E 003°30'816.2
2017-Oct-13 17:00N 52°12' E 003°19'5216.3
2017-Oct-13 13:49N 52°42' E 002°08'517.4
2017-Oct-13 13:30N 52°45' E 002°01'917.9
2017-Oct-13 13:00N 52°50' E 001°49'917.9
2017-Oct-13 12:31N 52°54' E 001°36'917.9
2017-Oct-13 12:00N 52°58' E 001°23'917.7
2017-Oct-13 11:30N 53°01' E 001°09'5115.5
2017-Oct-13 08:15N 53°34' E 000°05'313.2
2017-Oct-13 08:01N 53°35' W 000°00'713.2
2017-Oct-13 07:30N 53°38' W 000°11'1 1.2
2017-Oct-13 07:01N 53°38' W 000°12'0 0.1
2017-Oct-13 06:24N 53°38' W 000°12'0 0.0
2017-Oct-13 06:00N 53°38' W 000°12'0 0.0
2017-Oct-13 05:29N 53°38' W 000°12'0 0.0
2017-Oct-13 04:03N 53°38' W 000°12'0 0.0
2017-Oct-13 03:58N 53°38' W 000°12'0 0.0
2017-Oct-13 03:31N 53°38' W 000°12'0 0.0
2017-Oct-13 02:51N 53°38' W 000°12'0 0.0
2017-Oct-13 02:30N 53°38' W 000°12'0 0.0
2017-Oct-13 00:28N 53°38' W 000°12'0 0.0
2017-Oct-13 00:00N 53°38' W 000°12'0 0.0
2017-Oct-12 23:30N 53°38' W 000°12'0 0.0
2017-Oct-12 23:01N 53°38' W 000°12'0 0.0
2017-Oct-12 22:30N 53°38' W 000°12'0 0.0
2017-Oct-12 22:00N 53°38' W 000°12'0 0.0
2017-Oct-12 21:30N 53°38' W 000°12'0 0.0
2017-Oct-12 21:00N 53°38' W 000°12'0 0.0
2017-Oct-12 20:30N 53°38' W 000°12'0 0.2
2017-Oct-12 20:00N 53°38' W 000°11'0 0.1
2017-Oct-12 19:30N 53°38' W 000°11'0 0.5
2017-Oct-12 19:00N 53°38' W 000°11'2 3.4
2017-Oct-12 18:30N 53°38' W 000°08'  

Dump ship's entire track history